ADDS METAR Data INFO
IDs: Format: Raw Decoded Include TAF

Data at: 0246 UTC 21 Oct 2017

KVVV 210234Z AUTO 01012G18KT 10SM CLR 20/13 A2952 RMK AO2
KVVV 210214Z AUTO 01012G16KT 10SM CLR 20/13 A2952 RMK AO2
KVVV 210153Z AUTO 36013G20KT 10SM CLR 21/13 A2952 RMK AO2
KVVV 210134Z AUTO 01012G20KT 10SM CLR 21/13 A2952 RMK AO2
KVVV 210114Z AUTO 02010G16KT 10SM CLR 21/12 A2953 RMK AO2
KVVV 210053Z AUTO 02012G18KT 10SM CLR 21/12 A2953 RMK AO2
KVVV 210034Z AUTO 01010G14KT 10SM CLR 21/12 A2954 RMK AO2
KVVV 210014Z AUTO 01009G15KT 10SM CLR 21/12 A2953 RMK AO2
KVVV 202353Z AUTO 01008G15KT 10SM CLR 21/12 A2953 RMK AO2
KVVV 202334Z AUTO 01009G14KT 10SM CLR 22/12 A2952 RMK AO2
KVVV 202314Z AUTO 36015G23KT 10SM CLR 22/12 A2952 RMK AO2
KVVV 202253Z AUTO 36016G22KT 10SM CLR 23/12 A2952 RMK AO2
KVVV 202234Z AUTO 01012G19KT 10SM CLR 23/12 A2952 RMK AO2
KVVV 202214Z AUTO 01012G16KT 10SM CLR 23/12 A2953 RMK AO2
KVVV 202153Z AUTO 36013G20KT 10SM CLR 23/12 A2954 RMK AO2
KVVV 202134Z AUTO 36012KT 7SM CLR 23/12 A2955 RMK AO2
KVVV 202113Z AUTO 36015G23KT 10SM CLR 24/12 A2955 RMK AO2
KVVV 202054Z AUTO 36016G23KT 10SM CLR 24/12 A2955 RMK AO2
KVVV 202034Z AUTO 36019G27KT 10SM CLR 24/12 A2955 RMK AO2
KVVV 202014Z AUTO 36022G29KT 10SM CLR 24/12 A2956 RMK AO2
KVVV 201953Z AUTO 36016G23KT 10SM CLR 24/12 A2957 RMK AO2
KVVV 201934Z AUTO 01018G26KT 10SM CLR 24/12 A2957 RMK AO2
KVVV 201914Z AUTO 01017G24KT 10SM CLR 24/12 A2958 RMK AO2
KVVV 201854Z AUTO 36014G22KT 10SM CLR 24/12 A2959 RMK AO2
KVVV 201834Z AUTO 36015G24KT 10SM CLR 23/12 A2961 RMK AO2
KVVV 201813Z AUTO 36014G20KT 10SM CLR 22/12 A2962 RMK AO2
KVVV 201754Z AUTO 36014G23KT 10SM CLR 21/11 A2963 RMK AO2
KVVV 201733Z AUTO 36011G17KT 10SM CLR 21/11 A2965 RMK AO2
KVVV 201714Z AUTO 36014G20KT 10SM CLR 20/11 A2965 RMK AO2
KVVV 201654Z AUTO 01015G20KT 10SM CLR 19/10 A2966 RMK AO2
KVVV 201634Z AUTO 35015G23KT 10SM CLR 19/10 A2967 RMK AO2
KVVV 201613Z AUTO 35012G22KT 10SM CLR 19/11 A2968 RMK AO2
KVVV 201554Z AUTO 34013G18KT 10SM CLR 19/10 A2968 RMK AO2
KVVV 201534Z AUTO 36013G19KT 10SM CLR 19/10 A2969 RMK AO2
KVVV 201513Z AUTO 36009G15KT 10SM CLR 18/09 A2970 RMK AO2
KVVV 201454Z AUTO 36010G16KT 10SM CLR 17/09 A2970 RMK AO2
KVVV 201434Z AUTO 36010KT 10SM CLR 16/09 A2970 RMK AO2
KVVV 201413Z AUTO 36007KT 10SM CLR 16/09 A2971 RMK AO2
KVVV 201354Z AUTO 36008KT 10SM CLR 15/09 A2971 RMK AO2
KVVV 201334Z AUTO 36007KT 10SM CLR 13/09 A2971 RMK AO2
KVVV 201313Z AUTO 02007KT 10SM CLR 13/09 A2971 RMK AO2
KVVV 201254Z AUTO 01007KT 10SM CLR 11/09 A2971 RMK AO2
KVVV 201234Z AUTO 03005KT 10SM CLR 10/08 A2971 RMK AO2
KVVV 201213Z AUTO 04008KT 10SM CLR 10/08 A2972 RMK AO2
KVVV 201154Z AUTO 04007KT 10SM CLR 11/08 A2972 RMK AO2
KVVV 201134Z AUTO 05006KT 10SM CLR 11/08 A2973 RMK AO2
KVVV 201113Z AUTO 04005KT 10SM CLR 11/08 A2973 RMK AO2
KVVV 201054Z AUTO 03007KT 10SM CLR 11/08 A2973 RMK AO2
KVVV 201034Z AUTO 03007KT 10SM CLR 11/08 A2973 RMK AO2
KVVV 201013Z AUTO 04006KT 10SM CLR 11/08 A2973 RMK AO2
KVVV 200954Z AUTO 03006KT 10SM CLR 11/08 A2974 RMK AO2
KVVV 200934Z AUTO 04007KT 10SM CLR 11/08 A2974 RMK AO2
KVVV 200913Z AUTO 04007KT 10SM CLR 11/08 A2975 RMK AO2
KVVV 200854Z AUTO 04007KT 10SM CLR 11/08 A2975 RMK AO2
KVVV 200834Z AUTO 04006KT 10SM CLR 11/08 A2975 RMK AO2
KVVV 200813Z AUTO 04006KT 10SM CLR 11/08 A2976 RMK AO2
KVVV 200754Z AUTO 03005KT 10SM CLR 11/08 A2976 RMK AO2
KVVV 200734Z AUTO 04006KT 10SM CLR 11/08 A2977 RMK AO2
KVVV 200714Z AUTO 04006KT 10SM CLR 11/08 A2977 RMK AO2
KVVV 200654Z AUTO 05006KT 10SM CLR 11/08 A2978 RMK AO2
KVVV 200633Z AUTO 03007KT 10SM CLR 11/08 A2978 RMK AO2
KVVV 200614Z AUTO 04006KT 10SM CLR 11/08 A2978 RMK AO2
KVVV 200554Z AUTO 05006KT 10SM CLR 12/08 A2979 RMK AO2
KVVV 200533Z AUTO 05006KT 10SM CLR 12/08 A2979 RMK AO2
KVVV 200514Z AUTO 05007KT 10SM CLR 11/08 A2980 RMK AO2
KVVV 200454Z AUTO 04006KT 10SM CLR 11/08 A2980 RMK AO2
KVVV 200433Z AUTO 05006KT 10SM CLR 12/08 A2980 RMK AO2
KVVV 200414Z AUTO 03005KT 10SM CLR 12/08 A2981 RMK AO2
KVVV 200354Z AUTO 04006KT 10SM CLR 12/08 A2981 RMK AO2
KVVV 200334Z AUTO 03007KT 10SM CLR 12/08 A2981 RMK AO2
KVVV 200313Z AUTO 02004KT 10SM CLR 13/08 A2981 RMK AO2
KVVV 200254Z AUTO 00000KT 10SM CLR 14/08 A2981 RMK AO2
KVVV 200234Z AUTO 36007KT 10SM CLR 16/09 A2981 RMK AO2
KVVV 200213Z AUTO 01007KT 10SM CLR 14/08 A2981 RMK AO2
KVVV 200154Z AUTO 02005KT 10SM CLR 15/08 A2982 RMK AO2
KVVV 200133Z AUTO 01006KT 10SM CLR 16/08 A2982 RMK AO2
KVVV 200114Z AUTO 03007KT 10SM CLR 17/08 A2982 RMK AO2
KVVV 200054Z AUTO 01006KT 10SM CLR 18/08 A2982 RMK AO2
KVVV 200033Z AUTO 01005KT 10SM CLR 18/08 A2982 RMK AO2
KVVV 200014Z AUTO 01006KT 10SM CLR 18/08 A2982 RMK AO2
KVVV 192354Z AUTO 02005KT 10SM CLR 17/08 A2982 RMK AO2
KVVV 192333Z AUTO 01004KT 10SM CLR 20/08 A2982 RMK AO2
KVVV 192314Z AUTO 35005KT 10SM CLR 21/08 A2982 RMK AO2
KVVV 192254Z AUTO 35005KT 10SM CLR 22/08 A2982 RMK AO2
KVVV 192233Z AUTO 35007KT 10SM CLR 23/08 A2982 RMK AO2
KVVV 192214Z AUTO 36008G14KT 10SM CLR 24/08 A2982 RMK AO2
KVVV 192154Z AUTO 36009G15KT 10SM CLR 24/08 A2982 RMK AO2
KVVV 192133Z AUTO 36008KT 10SM CLR 24/07 A2982 RMK AO2
KVVV 192114Z AUTO 36012G17KT 10SM CLR 24/07 A2982 RMK AO2
KVVV 192054Z AUTO 35009G21KT 10SM CLR 24/07 A2983 RMK AO2
KVVV 192033Z AUTO 35014G20KT 10SM CLR 23/07 A2983 RMK AO2
KVVV 192014Z AUTO 35010G16KT 10SM CLR 24/07 A2984 RMK AO2
KVVV 191954Z AUTO 35014G17KT 10SM CLR 23/06 A2985 RMK AO2
KVVV 191933Z AUTO 35014G22KT 10SM CLR 23/06 A2986 RMK AO2
KVVV 191914Z AUTO 35013G19KT 10SM CLR 23/05 A2987 RMK AO2
KVVV 191854Z AUTO 35013G19KT 10SM CLR 22/04 A2988 RMK AO2
KVVV 191833Z AUTO 35011G19KT 10SM CLR 22/04 A2990 RMK AO2
KVVV 191759Z AUTO 33013G19KT 10SM CLR 21/03 A2991 RMK AO2
KVVV 191733Z AUTO 35014G19KT 10SM CLR 21/03 A2992 RMK AO2
KVVV 191714Z AUTO 35013G20KT 10SM CLR 21/03 A2993 RMK AO2
KVVV 191654Z AUTO 34014G18KT 10SM CLR 21/03 A2993 RMK AO2
KVVV 191633Z AUTO 35010G18KT 10SM CLR 20/03 A2993 RMK AO2
KVVV 191614Z AUTO 35008G14KT 10SM CLR 19/03 A2993 RMK AO2
KVVV 191554Z AUTO 36008KT 10SM CLR 16/03 A2993 RMK AO2
KVVV 191533Z AUTO 01008KT 10SM CLR 13/02 A2994 RMK AO2
KVVV 191514Z AUTO 03006KT 10SM CLR 12/03 A2994 RMK AO2
KVVV 191454Z AUTO 04007KT 10SM CLR 10/02 A2994 RMK AO2